sensor_id;sensor_type;location;lat;lon;timestamp;pressure;altitude;pressure_sealevel;temperature;humidity
80558;BME280;69901;43.524;-5.636;2023-09-19T00:00:42;101913.72;;;48.53;14.49
80558;BME280;69901;43.524;-5.636;2023-09-19T00:03:08;101911.94;;;48.37;14.23
80558;BME280;69901;43.524;-5.636;2023-09-19T00:05:35;101910.66;;;48.93;14.68
80558;BME280;69901;43.524;-5.636;2023-09-19T00:08:01;101911.63;;;48.72;14.35
80558;BME280;69901;43.524;-5.636;2023-09-19T00:10:30;101914.84;;;48.64;14.55
80558;BME280;69901;43.524;-5.636;2023-09-19T00:13:00;101909.56;;;49.41;14.02
80558;BME280;69901;43.524;-5.636;2023-09-19T00:15:26;101912.44;;;48.63;14.69
80558;BME280;69901;43.524;-5.636;2023-09-19T00:17:57;101924.91;;;49.33;13.93
80558;BME280;69901;43.524;-5.636;2023-09-19T00:20:22;101913.84;;;48.58;14.78
80558;BME280;69901;43.524;-5.636;2023-09-19T00:22:49;101908.84;;;47.73;15.28
80558;BME280;69901;43.524;-5.636;2023-09-19T00:25:19;101907.34;;;48.00;14.63
80558;BME280;69901;43.524;-5.636;2023-09-19T00:27:45;101916.53;;;47.15;15.80
80558;BME280;69901;43.524;-5.636;2023-09-19T00:30:15;101899.94;;;46.41;16.38
80558;BME280;69901;43.524;-5.636;2023-09-19T00:32:47;101905.13;;;47.64;15.29
80558;BME280;69901;43.524;-5.636;2023-09-19T00:35:13;101907.72;;;48.20;15.18
80558;BME280;69901;43.524;-5.636;2023-09-19T00:37:42;101910.59;;;47.40;15.41
80558;BME280;69901;43.524;-5.636;2023-09-19T00:40:09;101909.72;;;47.00;15.48
80558;BME280;69901;43.524;-5.636;2023-09-19T00:42:38;101914.31;;;46.54;16.28
80558;BME280;69901;43.524;-5.636;2023-09-19T00:45:05;101903.78;;;46.25;16.64
80558;BME280;69901;43.524;-5.636;2023-09-19T00:47:30;101910.22;;;46.29;16.22
80558;BME280;69901;43.524;-5.636;2023-09-19T00:49:56;101904.06;;;46.74;15.57
80558;BME280;69901;43.524;-5.636;2023-09-19T00:52:22;101897.84;;;46.98;16.15
80558;BME280;69901;43.524;-5.636;2023-09-19T00:54:49;101902.47;;;47.48;15.51
80558;BME280;69901;43.524;-5.636;2023-09-19T00:57:15;101898.91;;;47.75;14.88
80558;BME280;69901;43.524;-5.636;2023-09-19T00:59:45;101908.34;;;48.24;15.06
80558;BME280;69901;43.524;-5.636;2023-09-19T01:02:13;101909.78;;;48.01;14.75
80558;BME280;69901;43.524;-5.636;2023-09-19T01:04:40;101909.97;;;48.16;14.90
80558;BME280;69901;43.524;-5.636;2023-09-19T01:07:07;101905.13;;;48.04;14.92
80558;BME280;69901;43.524;-5.636;2023-09-19T01:09:33;101909.47;;;48.08;14.84
80558;BME280;69901;43.524;-5.636;2023-09-19T01:12:02;101894.41;;;48.59;14.77
80558;BME280;69901;43.524;-5.636;2023-09-19T01:17:26;101904.38;;;48.49;14.84
80558;BME280;69901;43.524;-5.636;2023-09-19T01:25:18;101892.00;;;47.10;15.76
80558;BME280;69901;43.524;-5.636;2023-09-19T01:30:35;66643.34;;;-141.58;100.00
80558;BME280;69901;43.524;-5.636;2023-09-19T01:33:01;66643.34;;;-141.58;100.00
80558;BME280;69901;43.524;-5.636;2023-09-19T01:35:29;66643.34;;;-141.58;100.00
80558;BME280;69901;43.524;-5.636;2023-09-19T01:37:54;66643.34;;;-141.58;100.00
80558;BME280;69901;43.524;-5.636;2023-09-19T01:40:21;66643.34;;;-141.58;100.00
80558;BME280;69901;43.524;-5.636;2023-09-19T01:51:07;66643.34;;;-141.58;100.00
80558;BME280;69901;43.524;-5.636;2023-09-19T01:53:53;66643.34;;;-141.58;100.00
80558;BME280;69901;43.524;-5.636;2023-09-19T01:56:47;66643.34;;;-141.58;100.00
80558;BME280;69901;43.524;-5.636;2023-09-19T01:59:20;66643.34;;;-141.58;100.00
80558;BME280;69901;43.524;-5.636;2023-09-19T02:01:49;66643.34;;;-141.58;100.00
80558;BME280;69901;43.524;-5.636;2023-09-19T02:04:17;66643.34;;;-141.58;100.00
80558;BME280;69901;43.524;-5.636;2023-09-19T02:06:43;66643.34;;;-141.58;100.00
80558;BME280;69901;43.524;-5.636;2023-09-19T02:09:08;66643.34;;;-141.58;100.00
80558;BME280;69901;43.524;-5.636;2023-09-19T02:11:34;66643.34;;;-141.58;100.00
80558;BME280;69901;43.524;-5.636;2023-09-19T02:14:01;66643.34;;;-141.58;100.00
80558;BME280;69901;43.524;-5.636;2023-09-19T02:16:26;66643.34;;;-141.58;100.00
80558;BME280;69901;43.524;-5.636;2023-09-19T02:18:51;66643.34;;;-141.58;100.00
80558;BME280;69901;43.524;-5.636;2023-09-19T02:21:18;66643.34;;;-141.58;100.00
80558;BME280;69901;43.524;-5.636;2023-09-19T02:23:44;66643.34;;;-141.58;100.00
80558;BME280;69901;43.524;-5.636;2023-09-19T02:26:12;66643.34;;;-141.58;100.00
80558;BME280;69901;43.524;-5.636;2023-09-19T02:28:39;66643.34;;;-141.58;100.00
80558;BME280;69901;43.524;-5.636;2023-09-19T02:31:04;66643.34;;;-141.58;100.00
80558;BME280;69901;43.524;-5.636;2023-09-19T02:33:32;66643.34;;;-141.58;100.00
80558;BME280;69901;43.524;-5.636;2023-09-19T02:35:58;66643.34;;;-141.58;100.00
80558;BME280;69901;43.524;-5.636;2023-09-19T02:38:27;66643.34;;;-141.58;100.00
80558;BME280;69901;43.524;-5.636;2023-09-19T02:40:53;66643.34;;;-141.58;100.00
80558;BME280;69901;43.524;-5.636;2023-09-19T02:43:20;66643.34;;;-141.58;100.00
80558;BME280;69901;43.524;-5.636;2023-09-19T02:45:46;66643.34;;;-141.58;100.00
80558;BME280;69901;43.524;-5.636;2023-09-19T02:48:12;66643.34;;;-141.58;100.00
80558;BME280;69901;43.524;-5.636;2023-09-19T02:50:37;66643.34;;;-141.58;100.00
80558;BME280;69901;43.524;-5.636;2023-09-19T02:53:04;66643.34;;;-141.58;100.00
80558;BME280;69901;43.524;-5.636;2023-09-19T02:55:30;66643.34;;;-141.58;100.00
80558;BME280;69901;43.524;-5.636;2023-09-19T02:57:55;66643.34;;;-141.58;100.00
80558;BME280;69901;43.524;-5.636;2023-09-19T03:00:21;66643.34;;;-141.58;100.00
80558;BME280;69901;43.524;-5.636;2023-09-19T03:02:52;66643.34;;;-141.58;100.00
80558;BME280;69901;43.524;-5.636;2023-09-19T03:05:19;66643.34;;;-141.58;100.00
80558;BME280;69901;43.524;-5.636;2023-09-19T03:07:47;66643.34;;;-141.58;100.00
80558;BME280;69901;43.524;-5.636;2023-09-19T03:10:16;66643.34;;;-141.58;100.00
80558;BME280;69901;43.524;-5.636;2023-09-19T03:12:42;66643.34;;;-141.58;100.00
80558;BME280;69901;43.524;-5.636;2023-09-19T03:15:08;66643.34;;;-141.58;100.00
80558;BME280;69901;43.524;-5.636;2023-09-19T03:17:36;66643.34;;;-141.58;100.00
80558;BME280;69901;43.524;-5.636;2023-09-19T03:20:03;66643.34;;;-141.58;100.00
80558;BME280;69901;43.524;-5.636;2023-09-19T03:22:34;66643.34;;;-141.58;100.00
80558;BME280;69901;43.524;-5.636;2023-09-19T03:24:59;66643.34;;;-141.58;100.00
80558;BME280;69901;43.524;-5.636;2023-09-19T03:27:25;66643.34;;;-141.58;100.00
80558;BME280;69901;43.524;-5.636;2023-09-19T03:29:52;66643.34;;;-141.58;100.00
80558;BME280;69901;43.524;-5.636;2023-09-19T03:32:18;66643.34;;;-141.58;100.00
80558;BME280;69901;43.524;-5.636;2023-09-19T03:34:44;66643.34;;;-141.58;100.00
80558;BME280;69901;43.524;-5.636;2023-09-19T03:37:09;66643.34;;;-141.58;100.00
80558;BME280;69901;43.524;-5.636;2023-09-19T03:39:35;66643.34;;;-141.58;100.00
80558;BME280;69901;43.524;-5.636;2023-09-19T03:42:02;66643.34;;;-141.58;100.00
80558;BME280;69901;43.524;-5.636;2023-09-19T03:44:32;66643.34;;;-141.58;100.00
80558;BME280;69901;43.524;-5.636;2023-09-19T03:46:57;66643.34;;;-141.58;100.00
80558;BME280;69901;43.524;-5.636;2023-09-19T03:49:23;66643.34;;;-141.58;100.00
80558;BME280;69901;43.524;-5.636;2023-09-19T03:51:48;66643.34;;;-141.58;100.00
80558;BME280;69901;43.524;-5.636;2023-09-19T03:54:14;66643.34;;;-141.58;100.00
80558;BME280;69901;43.524;-5.636;2023-09-19T03:56:40;66643.34;;;-141.58;100.00
80558;BME280;69901;43.524;-5.636;2023-09-19T03:59:06;66643.34;;;-141.58;100.00
80558;BME280;69901;43.524;-5.636;2023-09-19T04:01:33;66643.34;;;-141.58;100.00
80558;BME280;69901;43.524;-5.636;2023-09-19T04:03:59;66643.34;;;-141.58;100.00
80558;BME280;69901;43.524;-5.636;2023-09-19T04:06:35;66643.34;;;-141.58;100.00
80558;BME280;69901;43.524;-5.636;2023-09-19T04:09:04;66643.34;;;-141.58;100.00
80558;BME280;69901;43.524;-5.636;2023-09-19T04:11:32;66643.34;;;-141.58;100.00
80558;BME280;69901;43.524;-5.636;2023-09-19T04:13:58;66643.34;;;-141.58;100.00
80558;BME280;69901;43.524;-5.636;2023-09-19T04:16:23;66643.34;;;-141.58;100.00
80558;BME280;69901;43.524;-5.636;2023-09-19T04:18:49;66643.34;;;-141.58;100.00
80558;BME280;69901;43.524;-5.636;2023-09-19T04:21:14;66643.34;;;-141.58;100.00
80558;BME280;69901;43.524;-5.636;2023-09-19T04:23:40;66643.34;;;-141.58;100.00
80558;BME280;69901;43.524;-5.636;2023-09-19T04:26:05;66643.34;;;-141.58;100.00
80558;BME280;69901;43.524;-5.636;2023-09-19T04:28:31;66643.34;;;-141.58;100.00
80558;BME280;69901;43.524;-5.636;2023-09-19T04:30:59;66643.34;;;-141.58;100.00
80558;BME280;69901;43.524;-5.636;2023-09-19T04:33:26;66643.34;;;-141.58;100.00
80558;BME280;69901;43.524;-5.636;2023-09-19T04:35:52;66643.34;;;-141.58;100.00
80558;BME280;69901;43.524;-5.636;2023-09-19T04:38:21;66643.34;;;-141.58;100.00
80558;BME280;69901;43.524;-5.636;2023-09-19T04:40:47;66643.34;;;-141.58;100.00
80558;BME280;69901;43.524;-5.636;2023-09-19T04:43:13;66643.34;;;-141.58;100.00
80558;BME280;69901;43.524;-5.636;2023-09-19T04:45:39;66643.34;;;-141.58;100.00
80558;BME280;69901;43.524;-5.636;2023-09-19T04:48:05;66643.34;;;-141.58;100.00
80558;BME280;69901;43.524;-5.636;2023-09-19T04:50:34;66643.34;;;-141.58;100.00
80558;BME280;69901;43.524;-5.636;2023-09-19T04:53:00;66643.34;;;-141.58;100.00
80558;BME280;69901;43.524;-5.636;2023-09-19T04:55:26;66643.34;;;-141.58;100.00
80558;BME280;69901;43.524;-5.636;2023-09-19T04:57:52;66643.34;;;-141.58;100.00
80558;BME280;69901;43.524;-5.636;2023-09-19T05:00:22;66643.34;;;-141.58;100.00
80558;BME280;69901;43.524;-5.636;2023-09-19T05:02:55;66643.34;;;-141.58;100.00
80558;BME280;69901;43.524;-5.636;2023-09-19T05:05:21;66643.34;;;-141.58;100.00
80558;BME280;69901;43.524;-5.636;2023-09-19T05:07:48;66643.34;;;-141.58;100.00
80558;BME280;69901;43.524;-5.636;2023-09-19T05:10:14;66643.34;;;-141.58;100.00
80558;BME280;69901;43.524;-5.636;2023-09-19T05:12:40;66643.34;;;-141.58;100.00
80558;BME280;69901;43.524;-5.636;2023-09-19T05:15:07;66643.34;;;-141.58;100.00
80558;BME280;69901;43.524;-5.636;2023-09-19T05:17:33;66643.34;;;-141.58;100.00
80558;BME280;69901;43.524;-5.636;2023-09-19T05:19:59;66643.34;;;-141.58;100.00
80558;BME280;69901;43.524;-5.636;2023-09-19T05:22:29;66643.34;;;-141.58;100.00
80558;BME280;69901;43.524;-5.636;2023-09-19T05:24:54;66643.34;;;-141.58;100.00
80558;BME280;69901;43.524;-5.636;2023-09-19T05:27:20;66643.34;;;-141.58;100.00
80558;BME280;69901;43.524;-5.636;2023-09-19T05:29:46;66643.34;;;-141.58;100.00
80558;BME280;69901;43.524;-5.636;2023-09-19T05:32:12;66643.34;;;-141.58;100.00
80558;BME280;69901;43.524;-5.636;2023-09-19T05:34:38;66643.34;;;-141.58;100.00
80558;BME280;69901;43.524;-5.636;2023-09-19T05:37:04;66643.34;;;-141.58;100.00
80558;BME280;69901;43.524;-5.636;2023-09-19T05:39:33;66643.34;;;-141.58;100.00
80558;BME280;69901;43.524;-5.636;2023-09-19T05:41:58;66643.34;;;-141.58;100.00
80558;BME280;69901;43.524;-5.636;2023-09-19T05:44:25;66643.34;;;-141.58;100.00
80558;BME280;69901;43.524;-5.636;2023-09-19T05:46:50;66643.34;;;-141.58;100.00
80558;BME280;69901;43.524;-5.636;2023-09-19T05:49:17;66643.34;;;-141.58;100.00
80558;BME280;69901;43.524;-5.636;2023-09-19T05:51:42;66643.34;;;-141.58;100.00
80558;BME280;69901;43.524;-5.636;2023-09-19T05:54:08;66643.34;;;-141.58;100.00
80558;BME280;69901;43.524;-5.636;2023-09-19T05:56:34;66643.34;;;-141.58;100.00
80558;BME280;69901;43.524;-5.636;2023-09-19T05:58:59;66643.34;;;-141.58;100.00
80558;BME280;69901;43.524;-5.636;2023-09-19T06:01:25;66643.34;;;-141.58;100.00
80558;BME280;69901;43.524;-5.636;2023-09-19T06:03:51;66643.34;;;-141.58;100.00
80558;BME280;69901;43.524;-5.636;2023-09-19T06:06:18;66643.34;;;-141.58;100.00
80558;BME280;69901;43.524;-5.636;2023-09-19T06:08:44;66643.34;;;-141.58;100.00
80558;BME280;69901;43.524;-5.636;2023-09-19T06:11:09;66643.34;;;-141.58;100.00
80558;BME280;69901;43.524;-5.636;2023-09-19T06:13:36;66643.34;;;-141.58;100.00
80558;BME280;69901;43.524;-5.636;2023-09-19T06:16:01;66643.34;;;-141.58;100.00
80558;BME280;69901;43.524;-5.636;2023-09-19T06:18:31;66643.34;;;-141.58;100.00
80558;BME280;69901;43.524;-5.636;2023-09-19T06:20:59;66643.34;;;-141.58;100.00
80558;BME280;69901;43.524;-5.636;2023-09-19T06:23:25;66643.34;;;-141.58;100.00
80558;BME280;69901;43.524;-5.636;2023-09-19T06:25:52;66643.34;;;-141.58;100.00
80558;BME280;69901;43.524;-5.636;2023-09-19T06:28:18;66643.34;;;-141.58;100.00
80558;BME280;69901;43.524;-5.636;2023-09-19T06:30:49;66643.34;;;-141.58;100.00
80558;BME280;69901;43.524;-5.636;2023-09-19T06:33:15;66643.34;;;-141.58;100.00
80558;BME280;69901;43.524;-5.636;2023-09-19T06:35:40;66643.34;;;-141.58;100.00
80558;BME280;69901;43.524;-5.636;2023-09-19T06:38:07;66643.34;;;-141.58;100.00
80558;BME280;69901;43.524;-5.636;2023-09-19T06:40:34;66643.34;;;-141.58;100.00
80558;BME280;69901;43.524;-5.636;2023-09-19T06:43:00;66643.34;;;-141.58;100.00
80558;BME280;69901;43.524;-5.636;2023-09-19T06:45:27;66643.34;;;-141.58;100.00
80558;BME280;69901;43.524;-5.636;2023-09-19T06:47:53;66643.34;;;-141.58;100.00
80558;BME280;69901;43.524;-5.636;2023-09-19T06:50:23;66643.34;;;-141.58;100.00
80558;BME280;69901;43.524;-5.636;2023-09-19T06:52:51;66643.34;;;-141.58;100.00
80558;BME280;69901;43.524;-5.636;2023-09-19T06:55:18;66643.34;;;-141.58;100.00
80558;BME280;69901;43.524;-5.636;2023-09-19T06:57:45;66643.34;;;-141.58;100.00
80558;BME280;69901;43.524;-5.636;2023-09-19T07:00:12;66643.34;;;-141.58;100.00
80558;BME280;69901;43.524;-5.636;2023-09-19T07:02:41;66643.34;;;-141.58;100.00
80558;BME280;69901;43.524;-5.636;2023-09-19T07:05:07;66643.34;;;-141.58;100.00
80558;BME280;69901;43.524;-5.636;2023-09-19T07:07:33;66643.34;;;-141.58;100.00
80558;BME280;69901;43.524;-5.636;2023-09-19T07:10:01;66643.34;;;-141.58;100.00
80558;BME280;69901;43.524;-5.636;2023-09-19T07:12:26;66643.34;;;-141.58;100.00
80558;BME280;69901;43.524;-5.636;2023-09-19T07:14:52;66643.34;;;-141.58;100.00
80558;BME280;69901;43.524;-5.636;2023-09-19T07:17:17;66643.34;;;-141.58;100.00
80558;BME280;69901;43.524;-5.636;2023-09-19T07:19:44;66643.34;;;-141.58;100.00
80558;BME280;69901;43.524;-5.636;2023-09-19T07:22:10;66643.34;;;-141.58;100.00
80558;BME280;69901;43.524;-5.636;2023-09-19T07:24:36;66643.34;;;-141.58;100.00
80558;BME280;69901;43.524;-5.636;2023-09-19T07:27:02;66643.34;;;-141.58;100.00
80558;BME280;69901;43.524;-5.636;2023-09-19T07:29:28;66643.34;;;-141.58;100.00
80558;BME280;69901;43.524;-5.636;2023-09-19T07:31:53;66643.34;;;-141.58;100.00
80558;BME280;69901;43.524;-5.636;2023-09-19T07:34:19;66643.34;;;-141.58;100.00
80558;BME280;69901;43.524;-5.636;2023-09-19T07:36:47;66643.34;;;-141.58;100.00
80558;BME280;69901;43.524;-5.636;2023-09-19T07:39:13;66643.34;;;-141.58;100.00
80558;BME280;69901;43.524;-5.636;2023-09-19T07:41:38;66643.34;;;-141.58;100.00
80558;BME280;69901;43.524;-5.636;2023-09-19T07:44:04;66643.34;;;-141.58;100.00
80558;BME280;69901;43.524;-5.636;2023-09-19T07:46:30;66643.34;;;-141.58;100.00
80558;BME280;69901;43.524;-5.636;2023-09-19T07:48:56;66643.34;;;-141.58;100.00
80558;BME280;69901;43.524;-5.636;2023-09-19T07:51:22;66643.34;;;-141.58;100.00
80558;BME280;69901;43.524;-5.636;2023-09-19T07:53:48;66643.34;;;-141.58;100.00
80558;BME280;69901;43.524;-5.636;2023-09-19T07:56:13;66643.34;;;-141.58;100.00
80558;BME280;69901;43.524;-5.636;2023-09-19T07:58:40;66643.34;;;-141.58;100.00
80558;BME280;69901;43.524;-5.636;2023-09-19T08:01:10;66643.34;;;-141.58;100.00
80558;BME280;69901;43.524;-5.636;2023-09-19T08:03:36;66643.34;;;-141.58;100.00
80558;BME280;69901;43.524;-5.636;2023-09-19T08:06:06;66643.34;;;-141.58;100.00
80558;BME280;69901;43.524;-5.636;2023-09-19T08:08:33;66643.34;;;-141.58;100.00
80558;BME280;69901;43.524;-5.636;2023-09-19T08:11:05;66643.34;;;-141.58;100.00
80558;BME280;69901;43.524;-5.636;2023-09-19T08:13:38;66643.34;;;-141.58;100.00
80558;BME280;69901;43.524;-5.636;2023-09-19T08:16:12;66643.34;;;-141.58;100.00
80558;BME280;69901;43.524;-5.636;2023-09-19T08:18:38;66643.34;;;-141.58;100.00
80558;BME280;69901;43.524;-5.636;2023-09-19T08:21:05;66643.34;;;-141.58;100.00
80558;BME280;69901;43.524;-5.636;2023-09-19T08:23:38;66643.34;;;-141.58;100.00
80558;BME280;69901;43.524;-5.636;2023-09-19T08:26:04;66643.34;;;-141.58;100.00
80558;BME280;69901;43.524;-5.636;2023-09-19T08:28:33;66643.34;;;-141.58;100.00
80558;BME280;69901;43.524;-5.636;2023-09-19T08:31:05;66643.34;;;-141.58;100.00
80558;BME280;69901;43.524;-5.636;2023-09-19T08:33:34;66643.34;;;-141.58;100.00
80558;BME280;69901;43.524;-5.636;2023-09-19T08:36:01;66643.34;;;-141.58;100.00
80558;BME280;69901;43.524;-5.636;2023-09-19T08:38:26;66643.34;;;-141.58;100.00
80558;BME280;69901;43.524;-5.636;2023-09-19T08:40:59;66643.34;;;-141.58;100.00
80558;BME280;69901;43.524;-5.636;2023-09-19T08:43:28;66643.34;;;-141.58;100.00
80558;BME280;69901;43.524;-5.636;2023-09-19T08:48:39;66643.34;;;-141.58;100.00
80558;BME280;69901;43.524;-5.636;2023-09-19T08:51:13;66643.34;;;-141.58;100.00
80558;BME280;69901;43.524;-5.636;2023-09-19T08:54:24;66643.34;;;-141.58;100.00
80558;BME280;69901;43.524;-5.636;2023-09-19T08:56:41;66643.34;;;-141.58;100.00
80558;BME280;69901;43.524;-5.636;2023-09-19T08:59:09;66643.34;;;-141.58;100.00
80558;BME280;69901;43.524;-5.636;2023-09-19T09:01:35;66643.34;;;-141.58;100.00
80558;BME280;69901;43.524;-5.636;2023-09-19T09:04:02;66643.34;;;-141.58;100.00
80558;BME280;69901;43.524;-5.636;2023-09-19T09:06:29;66643.34;;;-141.58;100.00
80558;BME280;69901;43.524;-5.636;2023-09-19T09:08:55;66643.34;;;-141.58;100.00
80558;BME280;69901;43.524;-5.636;2023-09-19T09:11:21;66643.34;;;-141.58;100.00
80558;BME280;69901;43.524;-5.636;2023-09-19T09:13:50;66643.34;;;-141.58;100.00
80558;BME280;69901;43.524;-5.636;2023-09-19T09:16:15;66643.34;;;-141.58;100.00
80558;BME280;69901;43.524;-5.636;2023-09-19T09:18:47;66643.34;;;-141.58;100.00
80558;BME280;69901;43.524;-5.636;2023-09-19T09:21:18;66643.34;;;-141.58;100.00
80558;BME280;69901;43.524;-5.636;2023-09-19T09:23:44;66643.34;;;-141.58;100.00
80558;BME280;69901;43.524;-5.636;2023-09-19T09:26:09;66643.34;;;-141.58;100.00
80558;BME280;69901;43.524;-5.636;2023-09-19T09:28:35;66643.34;;;-141.58;100.00
80558;BME280;69901;43.524;-5.636;2023-09-19T09:31:04;66643.34;;;-141.58;100.00
80558;BME280;69901;43.524;-5.636;2023-09-19T09:33:35;66643.34;;;-141.58;100.00
80558;BME280;69901;43.524;-5.636;2023-09-19T09:36:03;66643.34;;;-141.58;100.00
80558;BME280;69901;43.524;-5.636;2023-09-19T09:38:42;66643.34;;;-141.58;100.00
80558;BME280;69901;43.524;-5.636;2023-09-19T09:41:09;66643.34;;;-141.58;100.00
80558;BME280;69901;43.524;-5.636;2023-09-19T09:43:39;66643.34;;;-141.58;100.00
80558;BME280;69901;43.524;-5.636;2023-09-19T09:46:18;66643.34;;;-141.58;100.00
80558;BME280;69901;43.524;-5.636;2023-09-19T09:49:03;66643.34;;;-141.58;100.00
80558;BME280;69901;43.524;-5.636;2023-09-19T09:52:05;66643.34;;;-141.58;100.00
80558;BME280;69901;43.524;-5.636;2023-09-19T09:55:01;66643.34;;;-141.58;100.00
80558;BME280;69901;43.524;-5.636;2023-09-19T09:57:30;66643.34;;;-141.58;100.00
80558;BME280;69901;43.524;-5.636;2023-09-19T09:59:59;66643.34;;;-141.58;100.00
80558;BME280;69901;43.524;-5.636;2023-09-19T10:02:37;66643.34;;;-141.58;100.00
80558;BME280;69901;43.524;-5.636;2023-09-19T10:05:17;66643.34;;;-141.58;100.00
80558;BME280;69901;43.524;-5.636;2023-09-19T10:07:51;66643.34;;;-141.58;100.00
80558;BME280;69901;43.524;-5.636;2023-09-19T10:10:35;66643.34;;;-141.58;100.00
80558;BME280;69901;43.524;-5.636;2023-09-19T10:13:08;66643.34;;;-141.58;100.00
80558;BME280;69901;43.524;-5.636;2023-09-19T10:15:37;66643.34;;;-141.58;100.00
80558;BME280;69901;43.524;-5.636;2023-09-19T10:18:07;66643.34;;;-141.58;100.00
80558;BME280;69901;43.524;-5.636;2023-09-19T10:20:44;66643.34;;;-141.58;100.00
80558;BME280;69901;43.524;-5.636;2023-09-19T10:23:12;66643.34;;;-141.58;100.00
80558;BME280;69901;43.524;-5.636;2023-09-19T10:25:42;66643.34;;;-141.58;100.00
80558;BME280;69901;43.524;-5.636;2023-09-19T10:28:14;66643.34;;;-141.58;100.00
80558;BME280;69901;43.524;-5.636;2023-09-19T10:30:45;66643.34;;;-141.58;100.00
80558;BME280;69901;43.524;-5.636;2023-09-19T10:33:13;66643.34;;;-141.58;100.00
80558;BME280;69901;43.524;-5.636;2023-09-19T10:35:42;66643.34;;;-141.58;100.00
80558;BME280;69901;43.524;-5.636;2023-09-19T10:38:10;66643.34;;;-141.58;100.00
80558;BME280;69901;43.524;-5.636;2023-09-19T10:40:37;66643.34;;;-141.58;100.00
80558;BME280;69901;43.524;-5.636;2023-09-19T10:43:06;66643.34;;;-141.58;100.00
80558;BME280;69901;43.524;-5.636;2023-09-19T10:45:35;66643.34;;;-141.58;100.00
80558;BME280;69901;43.524;-5.636;2023-09-19T10:48:04;66643.34;;;-141.58;100.00
80558;BME280;69901;43.524;-5.636;2023-09-19T10:50:36;66643.34;;;-141.58;100.00
80558;BME280;69901;43.524;-5.636;2023-09-19T10:53:07;66643.34;;;-141.58;100.00
80558;BME280;69901;43.524;-5.636;2023-09-19T10:55:36;66643.34;;;-141.58;100.00
80558;BME280;69901;43.524;-5.636;2023-09-19T10:58:02;66643.34;;;-141.58;100.00
80558;BME280;69901;43.524;-5.636;2023-09-19T11:00:58;66643.34;;;-141.58;100.00
80558;BME280;69901;43.524;-5.636;2023-09-19T11:03:41;66643.34;;;-141.58;100.00
80558;BME280;69901;43.524;-5.636;2023-09-19T11:06:16;66643.34;;;-141.58;100.00
80558;BME280;69901;43.524;-5.636;2023-09-19T11:09:02;66643.34;;;-141.58;100.00
80558;BME280;69901;43.524;-5.636;2023-09-19T11:30:49;66643.34;;;-141.58;100.00
80558;BME280;69901;43.524;-5.636;2023-09-19T11:33:24;66643.34;;;-141.58;100.00
80558;BME280;69901;43.524;-5.636;2023-09-19T11:36:15;66643.34;;;-141.58;100.00
80558;BME280;69901;43.524;-5.636;2023-09-19T11:46:12;66643.34;;;-141.58;100.00
80558;BME280;69901;43.524;-5.636;2023-09-19T11:48:42;66643.34;;;-141.58;100.00
80558;BME280;69901;43.524;-5.636;2023-09-19T11:51:14;66643.34;;;-141.58;100.00
80558;BME280;69901;43.524;-5.636;2023-09-19T11:53:45;66643.34;;;-141.58;100.00
80558;BME280;69901;43.524;-5.636;2023-09-19T11:56:15;66643.34;;;-141.58;100.00
80558;BME280;69901;43.524;-5.636;2023-09-19T11:58:43;66643.34;;;-141.58;100.00
80558;BME280;69901;43.524;-5.636;2023-09-19T12:01:12;66643.34;;;-141.58;100.00
80558;BME280;69901;43.524;-5.636;2023-09-19T12:03:46;66643.34;;;-141.58;100.00
80558;BME280;69901;43.524;-5.636;2023-09-19T12:06:15;66643.34;;;-141.58;100.00
80558;BME280;69901;43.524;-5.636;2023-09-19T12:08:42;66643.34;;;-141.58;100.00
80558;BME280;69901;43.524;-5.636;2023-09-19T12:11:13;66643.34;;;-141.58;100.00
80558;BME280;69901;43.524;-5.636;2023-09-19T12:13:44;66643.34;;;-141.58;100.00
80558;BME280;69901;43.524;-5.636;2023-09-19T12:16:17;66643.34;;;-141.58;100.00
80558;BME280;69901;43.524;-5.636;2023-09-19T12:18:47;66643.34;;;-141.58;100.00
80558;BME280;69901;43.524;-5.636;2023-09-19T12:21:26;66643.34;;;-141.58;100.00
80558;BME280;69901;43.524;-5.636;2023-09-19T12:26:45;66643.34;;;-141.58;100.00
80558;BME280;69901;43.524;-5.636;2023-09-19T12:29:17;66643.34;;;-141.58;100.00
80558;BME280;69901;43.524;-5.636;2023-09-19T12:31:55;66643.34;;;-141.58;100.00
80558;BME280;69901;43.524;-5.636;2023-09-19T12:34:27;66643.34;;;-141.58;100.00
80558;BME280;69901;43.524;-5.636;2023-09-19T12:39:47;66643.34;;;-141.58;100.00
80558;BME280;69901;43.524;-5.636;2023-09-19T12:42:23;66643.34;;;-141.58;100.00
80558;BME280;69901;43.524;-5.636;2023-09-19T12:44:51;66643.34;;;-141.58;100.00
80558;BME280;69901;43.524;-5.636;2023-09-19T12:47:21;66643.34;;;-141.58;100.00
80558;BME280;69901;43.524;-5.636;2023-09-19T12:50:13;66643.34;;;-141.58;100.00
80558;BME280;69901;43.524;-5.636;2023-09-19T12:55:29;66643.34;;;-141.58;100.00
80558;BME280;69901;43.524;-5.636;2023-09-19T12:58:13;66643.34;;;-141.58;100.00
80558;BME280;69901;43.524;-5.636;2023-09-19T13:00:43;66643.34;;;-141.58;100.00
80558;BME280;69901;43.524;-5.636;2023-09-19T13:05:57;66643.34;;;-141.58;100.00
80558;BME280;69901;43.524;-5.636;2023-09-19T13:08:26;66643.34;;;-141.58;100.00
80558;BME280;69901;43.524;-5.636;2023-09-19T13:11:10;66643.34;;;-141.58;100.00
80558;BME280;69901;43.524;-5.636;2023-09-19T13:13:50;66643.34;;;-141.58;100.00
80558;BME280;69901;43.524;-5.636;2023-09-19T13:16:20;66643.34;;;-141.58;100.00
80558;BME280;69901;43.524;-5.636;2023-09-19T13:18:51;66643.34;;;-141.58;100.00
80558;BME280;69901;43.524;-5.636;2023-09-19T13:21:31;66643.34;;;-141.58;100.00
80558;BME280;69901;43.524;-5.636;2023-09-19T13:24:21;66643.34;;;-141.58;100.00
80558;BME280;69901;43.524;-5.636;2023-09-19T13:26:48;66643.34;;;-141.58;100.00
80558;BME280;69901;43.524;-5.636;2023-09-19T13:29:14;66643.34;;;-141.58;100.00
80558;BME280;69901;43.524;-5.636;2023-09-19T13:31:46;66643.34;;;-141.58;100.00